createdAt,value
2018-01-18T00:00:24.106Z,93.13
2018-01-18T00:02:17.003Z,93.04
2018-01-18T00:03:17.016Z,93.04
2018-01-18T00:05:09.931Z,92.94
2018-01-18T00:06:09.927Z,93.13
2018-01-18T00:08:02.846Z,93.32
2018-01-18T00:09:02.838Z,92.38
2018-01-18T00:10:55.738Z,92.28
2018-01-18T00:11:55.752Z,92.85
2018-01-18T00:13:48.668Z,93.32
2018-01-18T00:14:48.668Z,93.13
2018-01-18T00:16:41.564Z,92.94
2018-01-18T00:17:41.576Z,93.32
2018-01-18T00:19:34.489Z,92.47
2018-01-18T00:20:34.483Z,93.32
2018-01-18T00:22:27.382Z,93.04
2018-01-18T00:23:27.396Z,92.66
2018-01-18T00:25:20.320Z,92.47
2018-01-18T00:26:20.309Z,92.57
2018-01-18T00:28:13.226Z,92.00
2018-01-18T00:29:13.223Z,92.47
2018-01-18T00:31:06.118Z,91.81
2018-01-18T00:32:06.131Z,91.90
2018-01-18T00:33:59.048Z,91.71
2018-01-18T00:34:59.044Z,92.00
2018-01-18T00:36:51.942Z,91.81
2018-01-18T00:37:52.000Z,91.71
2018-01-18T00:39:44.880Z,91.81
2018-01-18T00:40:44.875Z,92.19
2018-01-18T00:42:37.777Z,92.00
2018-01-18T00:43:37.791Z,91.81
2018-01-18T00:45:30.705Z,91.52
2018-01-18T00:46:30.702Z,91.52
2018-01-18T00:48:23.616Z,92.09
2018-01-18T00:49:23.611Z,91.81
2018-01-18T00:51:16.508Z,92.00
2018-01-18T00:52:16.521Z,92.09
2018-01-18T00:54:09.448Z,92.09
2018-01-18T00:55:09.441Z,91.71
2018-01-18T00:57:02.392Z,91.52
2018-01-18T00:58:02.356Z,91.62
2018-01-18T00:59:55.271Z,91.90
2018-01-18T01:00:55.267Z,91.33
2018-01-18T01:02:48.162Z,91.52
2018-01-18T01:03:48.176Z,91.14
2018-01-18T01:05:41.092Z,91.24
2018-01-18T01:06:41.088Z,91.14
2018-01-18T01:08:34.007Z,91.05
2018-01-18T01:09:34.004Z,91.33
2018-01-18T01:11:26.902Z,91.14
2018-01-18T01:12:26.914Z,90.95
2018-01-18T01:14:19.829Z,91.52
2018-01-18T01:15:19.826Z,91.33
2018-01-18T01:17:12.751Z,90.95
2018-01-18T01:18:12.743Z,91.14
2018-01-18T01:20:05.657Z,90.95
2018-01-18T01:21:05.652Z,90.95
2018-01-18T01:22:58.588Z,90.39
2018-01-18T01:23:58.572Z,90.77
2018-01-18T01:25:51.495Z,90.67
2018-01-18T01:26:51.489Z,90.86
2018-01-18T01:28:44.421Z,90.77
2018-01-18T01:29:44.406Z,90.20
2018-01-18T01:31:37.302Z,90.67
2018-01-18T01:32:37.316Z,90.29
2018-01-18T01:34:30.248Z,90.29
2018-01-18T01:35:30.232Z,90.10
2018-01-18T01:37:23.155Z,90.05
2018-01-18T01:38:23.151Z,89.82
2018-01-18T01:40:16.063Z,90.39
2018-01-18T01:41:16.061Z,90.39
2018-01-18T01:43:08.964Z,90.29
2018-01-18T01:44:08.968Z,90.29
2018-01-18T01:46:01.933Z,90.48
2018-01-18T01:47:01.881Z,90.24
2018-01-18T01:48:54.799Z,90.01
2018-01-18T01:49:54.794Z,89.82
2018-01-18T01:51:47.691Z,90.05
2018-01-18T01:52:47.705Z,90.01
2018-01-18T01:54:40.625Z,89.86
2018-01-18T01:55:40.616Z,89.72
2018-01-18T01:57:33.512Z,89.86
2018-01-18T01:58:33.527Z,89.96
2018-01-18T02:00:26.499Z,89.58
2018-01-18T02:01:26.437Z,89.29
2018-01-18T02:03:19.365Z,89.96
2018-01-18T02:04:19.354Z,89.96
2018-01-18T02:06:12.269Z,89.39
2018-01-18T02:07:12.266Z,89.11
2018-01-18T02:09:05.186Z,89.96
2018-01-18T02:10:05.185Z,89.20
2018-01-18T02:11:58.082Z,89.29
2018-01-18T02:12:58.092Z,90.05
2018-01-18T02:14:51.012Z,88.92
2018-01-18T02:15:51.012Z,89.39
2018-01-18T02:17:43.911Z,89.29
2018-01-18T02:18:43.927Z,89.29
2018-01-18T02:20:36.871Z,89.29
2018-01-18T02:21:36.848Z,88.92
2018-01-18T02:23:29.748Z,89.39
2018-01-18T02:24:29.760Z,89.29
2018-01-18T02:26:22.680Z,88.92
2018-01-18T02:27:22.675Z,88.92
2018-01-18T02:29:15.596Z,88.82
2018-01-18T02:30:15.593Z,88.54
2018-01-18T02:32:08.491Z,88.73
2018-01-18T02:33:08.505Z,89.20
2018-01-18T02:35:01.422Z,88.92
2018-01-18T02:36:01.433Z,89.01
2018-01-18T02:37:54.317Z,88.63
2018-01-18T02:38:54.332Z,89.01
2018-01-18T02:40:47.250Z,88.82
2018-01-18T02:41:47.245Z,89.01
2018-01-18T02:43:40.144Z,88.92
2018-01-18T02:44:40.158Z,88.82
2018-01-18T02:46:33.075Z,89.20
2018-01-18T02:47:33.075Z,89.29
2018-01-18T02:49:25.992Z,89.29
2018-01-18T02:50:25.994Z,89.20
2018-01-18T02:52:18.888Z,89.11
2018-01-18T02:53:18.901Z,88.92
2018-01-18T02:55:11.859Z,88.73
2018-01-18T02:56:11.811Z,88.92
2018-01-18T02:58:04.715Z,88.73
2018-01-18T02:59:04.730Z,88.73
2018-01-18T03:00:57.647Z,88.73
2018-01-18T03:01:57.643Z,88.54
2018-01-18T03:03:50.543Z,88.73
2018-01-18T03:04:50.560Z,88.73
2018-01-18T03:06:43.485Z,89.11
2018-01-18T03:07:43.480Z,88.82
2018-01-18T03:09:36.414Z,88.63
2018-01-18T03:10:36.412Z,88.63
2018-01-18T03:12:29.307Z,88.63
2018-01-18T03:13:29.322Z,88.82
2018-01-18T03:15:22.241Z,88.92
2018-01-18T03:16:22.238Z,88.54
2018-01-18T03:18:15.140Z,88.92
2018-01-18T03:19:15.154Z,88.63
2018-01-18T03:21:08.070Z,88.16
2018-01-18T03:22:08.067Z,88.44
2018-01-18T03:24:00.963Z,88.35
2018-01-18T03:25:00.978Z,87.68
2018-01-18T03:26:53.894Z,88.06
2018-01-18T03:27:53.891Z,88.44
2018-01-18T03:29:47.310Z,88.44
2018-01-18T03:30:47.308Z,88.35
2018-01-18T03:32:40.205Z,88.06
2018-01-18T03:33:40.226Z,88.16
2018-01-18T03:35:33.142Z,88.35
2018-01-18T03:36:33.140Z,88.35
2018-01-18T03:38:26.036Z,88.25
2018-01-18T03:39:26.051Z,88.35
2018-01-18T03:41:18.972Z,87.97
2018-01-18T03:42:18.971Z,88.44
2018-01-18T03:44:11.868Z,88.06
2018-01-18T03:45:11.884Z,88.06
2018-01-18T03:47:04.800Z,88.35
2018-01-18T03:48:04.793Z,88.25
2018-01-18T03:49:57.711Z,88.82
2018-01-18T03:50:57.713Z,88.73
2018-01-18T03:52:50.610Z,88.92
2018-01-18T03:53:50.624Z,88.73
2018-01-18T03:55:43.538Z,89.06
2018-01-18T03:56:43.535Z,88.87
2018-01-18T03:58:36.448Z,88.25
2018-01-18T03:59:36.454Z,88.44
2018-01-18T04:01:29.369Z,88.63
2018-01-18T04:02:29.367Z,88.77
2018-01-18T04:04:22.262Z,88.77
2018-01-18T04:05:22.288Z,88.82
2018-01-18T04:07:15.210Z,88.77
2018-01-18T04:08:15.194Z,88.96
2018-01-18T04:10:08.110Z,88.82
2018-01-18T04:11:08.126Z,88.73
2018-01-18T04:13:01.012Z,89.34
2018-01-18T04:14:01.030Z,89.11
2018-01-18T04:15:53.968Z,89.25
2018-01-18T04:16:53.965Z,89.58
2018-01-18T04:18:46.868Z,89.43
2018-01-18T04:19:46.894Z,89.48
2018-01-18T04:21:39.801Z,89.29
2018-01-18T04:22:39.798Z,89.67
2018-01-18T04:24:32.736Z,89.62
2018-01-18T04:25:32.748Z,89.91
2018-01-18T04:27:25.637Z,90.38
2018-01-18T04:28:25.631Z,90.10
2018-01-18T04:30:18.554Z,90.10
2018-01-18T04:31:18.559Z,90.38
2018-01-18T04:33:11.450Z,90.48
2018-01-18T04:34:11.466Z,90.91
2018-01-18T04:36:04.382Z,91.33
2018-01-18T04:37:04.378Z,91.05
2018-01-18T04:38:57.277Z,91.42
2018-01-18T04:39:57.293Z,91.05
2018-01-18T04:41:50.209Z,91.52
2018-01-18T04:42:50.208Z,91.99
2018-01-18T04:44:43.106Z,91.80
2018-01-18T04:45:43.120Z,91.66
2018-01-18T04:47:36.036Z,91.80
2018-01-18T04:48:36.035Z,91.71
2018-01-18T04:50:28.964Z,91.61
2018-01-18T04:51:28.959Z,91.52
2018-01-18T04:53:21.859Z,91.52
2018-01-18T04:54:21.875Z,91.80
2018-01-18T04:56:14.791Z,92.09
2018-01-18T04:57:14.787Z,92.18
2018-01-18T04:59:07.722Z,91.52
2018-01-18T05:00:07.705Z,91.95
2018-01-18T05:02:00.621Z,91.85
2018-01-18T05:03:00.617Z,92.09
2018-01-18T05:04:53.544Z,92.52
2018-01-18T05:05:53.540Z,92.42
2018-01-18T05:07:46.450Z,92.42
2018-01-18T05:08:46.449Z,93.18
2018-01-18T05:10:39.859Z,93.27
2018-01-18T05:11:39.858Z,93.27
2018-01-18T05:13:32.753Z,93.46
2018-01-18T05:14:32.766Z,93.27
2018-01-18T05:16:25.686Z,93.65
2018-01-18T05:17:25.680Z,93.46
2018-01-18T05:19:18.615Z,93.94
2018-01-18T05:20:18.630Z,93.94
2018-01-18T05:22:11.589Z,93.84
2018-01-18T05:23:11.586Z,93.94
2018-01-18T05:25:04.526Z,94.04
2018-01-18T05:26:04.539Z,94.13
2018-01-18T05:27:57.499Z,94.51
2018-01-18T05:28:57.503Z,94.89
2018-01-18T05:30:50.963Z,94.70
2018-01-18T05:31:50.961Z,94.60
2018-01-18T05:33:43.905Z,94.32
2018-01-18T05:34:43.913Z,94.79
2018-01-18T05:36:36.872Z,95.45
2018-01-18T05:37:36.870Z,95.22
2018-01-18T05:39:29.812Z,95.36
2018-01-18T05:40:29.821Z,95.31
2018-01-18T05:42:22.785Z,95.12
2018-01-18T05:43:22.805Z,95.88
2018-01-18T05:45:15.716Z,95.50
2018-01-18T05:46:15.729Z,96.45
2018-01-18T05:48:08.690Z,96.17
2018-01-18T05:49:08.685Z,96.17
2018-01-18T05:51:01.647Z,96.07
2018-01-18T05:52:01.639Z,96.07
2018-01-18T05:53:54.608Z,95.88
2018-01-18T05:54:54.592Z,96.36
2018-01-18T05:56:47.550Z,96.45
2018-01-18T05:57:47.547Z,96.26
2018-01-18T05:59:40.486Z,96.36
2018-01-18T06:00:40.501Z,96.64
2018-01-18T06:02:33.458Z,96.64
2018-01-18T06:03:33.457Z,96.64
2018-01-18T06:05:26.398Z,97.02
2018-01-18T06:06:26.411Z,96.83
2018-01-18T06:08:19.371Z,96.83
2018-01-18T06:09:19.366Z,97.02
2018-01-18T06:11:12.323Z,97.21
2018-01-18T06:12:12.319Z,96.55
2018-01-18T06:14:05.258Z,96.92
2018-01-18T06:15:05.272Z,97.30
2018-01-18T06:16:58.227Z,97.45
2018-01-18T06:17:58.224Z,97.11
2018-01-18T06:19:51.168Z,97.21
2018-01-18T06:20:51.179Z,97.87
2018-01-18T06:22:44.138Z,97.68
2018-01-18T06:23:44.134Z,97.45
2018-01-18T06:25:37.074Z,97.07
2018-01-18T06:26:37.088Z,97.26
2018-01-18T06:28:30.060Z,97.26
2018-01-18T06:29:30.043Z,97.07
2018-01-18T06:31:23.001Z,97.92
2018-01-18T06:32:22.997Z,98.11
2018-01-18T06:34:15.948Z,97.07
2018-01-18T06:35:15.951Z,97.26
2018-01-18T06:37:08.915Z,97.54
2018-01-18T06:38:08.906Z,96.88
2018-01-18T06:40:01.847Z,96.88
2018-01-18T06:41:01.864Z,96.97
2018-01-18T06:42:54.817Z,97.54
2018-01-18T06:43:54.817Z,97.35
2018-01-18T06:45:47.753Z,96.97
2018-01-18T06:46:47.767Z,97.64
2018-01-18T06:48:40.734Z,97.92
2018-01-18T06:49:40.724Z,97.73
2018-01-18T06:51:34.192Z,97.73
2018-01-18T06:52:34.189Z,97.64
2018-01-18T06:54:27.128Z,97.92
2018-01-18T06:55:27.148Z,98.11
2018-01-18T06:57:20.100Z,97.45
2018-01-18T06:58:20.097Z,97.73
2018-01-18T07:00:13.036Z,97.54
2018-01-18T07:01:13.053Z,97.59
2018-01-18T07:03:06.013Z,97.64
2018-01-18T07:04:06.006Z,97.78
2018-01-18T07:05:58.943Z,97.97
2018-01-18T07:06:58.960Z,97.69
2018-01-18T07:08:51.921Z,97.69
2018-01-18T07:09:51.914Z,97.78
2018-01-18T07:11:44.902Z,96.92
2018-01-18T07:12:44.869Z,97.40
2018-01-18T07:14:37.811Z,96.92
2018-01-18T07:15:37.822Z,97.21
2018-01-18T07:17:30.784Z,97.02
2018-01-18T07:18:30.780Z,96.83
2018-01-18T07:20:23.715Z,97.12
2018-01-18T07:21:23.729Z,97.02
2018-01-18T07:23:16.686Z,96.55
2018-01-18T07:24:16.692Z,96.64
2018-01-18T07:26:09.627Z,96.83
2018-01-18T07:27:09.640Z,96.55
2018-01-18T07:29:02.601Z,96.55
2018-01-18T07:30:02.592Z,96.64
2018-01-18T07:31:55.560Z,96.69
2018-01-18T07:32:55.547Z,96.78
2018-01-18T07:34:48.494Z,96.97
2018-01-18T07:35:48.503Z,96.69
2018-01-18T07:37:41.466Z,96.69
2018-01-18T07:38:41.458Z,96.88
2018-01-18T07:40:34.397Z,97.36
2018-01-18T07:41:34.420Z,96.97
2018-01-18T07:43:27.372Z,97.74
2018-01-18T07:44:27.366Z,97.74
2018-01-18T07:46:20.304Z,98.02
2018-01-18T07:47:20.318Z,97.83
2018-01-18T07:49:13.277Z,97.92
2018-01-18T07:50:13.272Z,97.83
2018-01-18T07:52:06.233Z,97.83
2018-01-18T07:53:06.227Z,97.83
2018-01-18T07:54:59.167Z,98.02
2018-01-18T07:55:59.181Z,97.92
2018-01-18T07:57:52.141Z,97.74
2018-01-18T07:58:52.136Z,97.74
2018-01-18T08:00:45.074Z,97.55
2018-01-18T08:01:45.090Z,97.64
2018-01-18T08:03:38.050Z,97.83
2018-01-18T08:04:38.143Z,98.02
2018-01-18T08:06:30.983Z,97.92
2018-01-18T08:07:30.998Z,97.74
2018-01-18T08:09:23.958Z,98.16
2018-01-18T08:10:23.962Z,98.54
2018-01-18T08:12:16.919Z,98.97
2018-01-18T08:13:16.907Z,99.44
2018-01-18T08:15:09.845Z,98.83
2018-01-18T08:16:09.862Z,99.30
2018-01-18T08:18:02.823Z,99.68
2018-01-18T08:19:02.818Z,99.99
2018-01-18T08:20:55.753Z,99.87
2018-01-18T08:21:55.772Z,99.77
2018-01-18T08:23:48.728Z,99.68
2018-01-18T08:24:48.723Z,99.99
2018-01-18T08:26:41.690Z,99.99
2018-01-18T08:27:41.679Z,99.99
2018-01-18T08:29:34.641Z,99.99
2018-01-18T08:30:34.634Z,99.99
2018-01-18T08:32:27.591Z,99.99
2018-01-18T08:33:27.586Z,99.99
2018-01-18T08:35:20.524Z,99.99
2018-01-18T08:36:20.544Z,99.99
2018-01-18T08:38:13.500Z,99.99
2018-01-18T08:39:13.592Z,99.99
2018-01-18T08:41:06.435Z,99.99
2018-01-18T08:42:06.450Z,99.92
2018-01-18T08:43:59.409Z,99.35
2018-01-18T08:44:59.408Z,99.83
2018-01-18T08:46:52.390Z,99.64
2018-01-18T08:47:52.361Z,99.16
2018-01-18T08:49:45.314Z,98.55
2018-01-18T08:50:45.312Z,98.74
2018-01-18T08:52:38.272Z,98.26
2018-01-18T08:53:38.271Z,98.45
2018-01-18T08:55:31.209Z,97.69
2018-01-18T08:56:31.223Z,97.88
2018-01-18T08:58:24.187Z,96.93
2018-01-18T08:59:24.178Z,96.89
2018-01-18T09:01:17.140Z,96.12
2018-01-18T09:02:17.135Z,95.94
2018-01-18T09:04:10.086Z,95.94
2018-01-18T09:05:10.087Z,93.65
2018-01-18T09:07:03.027Z,88.33
2018-01-18T09:08:03.049Z,88.42
2018-01-18T09:09:56.000Z,90.04
2018-01-18T09:10:56.011Z,91.18
2018-01-18T09:12:48.965Z,92.32
2018-01-18T09:13:48.956Z,92.51
2018-01-18T09:15:42.011Z,93.55
2018-01-18T09:16:42.009Z,94.42
2018-01-18T09:18:34.966Z,93.55
2018-01-18T09:19:34.964Z,92.51
2018-01-18T09:21:27.907Z,91.85
2018-01-18T09:22:27.921Z,91.66
2018-01-18T09:24:20.873Z,92.56
2018-01-18T09:25:20.877Z,91.61
2018-01-18T09:27:13.810Z,91.70
2018-01-18T09:28:13.834Z,91.70
2018-01-18T09:30:06.787Z,91.70
2018-01-18T09:31:06.780Z,91.70
2018-01-18T09:32:59.731Z,91.51
2018-01-18T09:33:59.739Z,91.80
2018-01-18T09:35:52.703Z,91.89
2018-01-18T09:36:52.687Z,91.80
2018-01-18T09:38:45.674Z,92.46
2018-01-18T09:39:45.645Z,91.70
2018-01-18T09:41:38.618Z,91.89
2018-01-18T09:42:38.600Z,91.32
2018-01-18T09:44:31.549Z,90.18
2018-01-18T09:45:31.545Z,89.61
2018-01-18T09:47:24.527Z,88.94
2018-01-18T09:48:24.502Z,88.75
2018-01-18T09:50:17.535Z,88.28
2018-01-18T09:51:17.474Z,87.71
2018-01-18T09:53:10.410Z,89.04
2018-01-18T09:54:10.409Z,88.94
2018-01-18T09:56:03.344Z,89.99
2018-01-18T09:57:03.364Z,89.23
2018-01-18T09:58:56.318Z,88.75
2018-01-18T09:59:56.320Z,88.75
2018-01-18T10:01:49.766Z,88.75
2018-01-18T10:02:49.809Z,87.71
2018-01-18T10:04:42.739Z,85.14
2018-01-18T10:05:42.748Z,85.42
2018-01-18T10:07:35.679Z,84.19
2018-01-18T10:08:35.696Z,83.14
2018-01-18T10:10:29.159Z,82.86
2018-01-18T10:11:29.161Z,81.81
2018-01-18T10:13:23.362Z,78.10
2018-01-18T10:14:23.148Z,78.57
2018-01-18T10:16:16.111Z,76.20
2018-01-18T10:17:16.091Z,75.62
2018-01-18T10:19:09.488Z,73.34
2018-01-18T10:20:09.470Z,73.72
2018-01-18T10:22:02.372Z,73.63
2018-01-18T10:23:02.392Z,73.91
2018-01-18T10:24:55.363Z,75.43
2018-01-18T10:25:55.368Z,75.43
2018-01-18T10:27:48.317Z,75.15
2018-01-18T10:28:48.330Z,75.62
2018-01-18T10:30:41.272Z,73.53
2018-01-18T10:31:41.294Z,73.63
2018-01-18T10:33:34.264Z,73.72
2018-01-18T10:34:34.233Z,72.86
2018-01-18T10:36:27.204Z,72.67
2018-01-18T10:37:27.182Z,71.25
2018-01-18T10:39:20.137Z,70.87
2018-01-18T10:40:20.160Z,70.20
2018-01-18T10:42:13.582Z,70.39
2018-01-18T10:43:13.601Z,70.45
2018-01-18T10:45:06.713Z,71.53
2018-01-18T10:46:06.677Z,71.59
2018-01-18T10:47:59.595Z,70.36
2018-01-18T10:48:59.614Z,70.39
2018-01-18T10:50:52.568Z,70.26
2018-01-18T10:51:52.578Z,69.21
2018-01-18T10:53:45.521Z,69.69
2018-01-18T12:36:49.594Z,81.60
2018-01-18T12:37:49.564Z,81.98
2018-01-18T12:39:42.745Z,82.36
2018-01-18T12:40:43.033Z,81.88
2018-01-18T12:42:35.281Z,80.84
2018-01-18T12:43:35.279Z,80.84
2018-01-18T12:45:28.919Z,80.84
2018-01-18T12:46:28.355Z,80.75
2018-01-18T12:48:21.072Z,80.65
2018-01-18T12:49:21.086Z,80.65
2018-01-18T12:51:13.997Z,80.37
2018-01-18T12:52:13.992Z,80.56
2018-01-18T12:54:06.890Z,80.75
2018-01-18T12:55:06.904Z,81.32
2018-01-18T12:56:59.814Z,81.98
2018-01-18T12:57:59.811Z,82.65
2018-01-18T12:59:52.710Z,81.98
2018-01-18T13:00:52.723Z,82.46
2018-01-18T13:02:45.651Z,82.84
2018-01-18T13:03:45.635Z,82.27
2018-01-18T13:05:38.545Z,81.79
2018-01-18T13:06:38.542Z,82.65
2018-01-18T13:08:31.929Z,82.69
2018-01-18T13:09:31.946Z,82.12
2018-01-18T13:11:25.865Z,82.50
2018-01-18T13:12:25.862Z,82.69
2018-01-18T13:14:18.754Z,81.23
2018-01-18T13:15:18.771Z,80.88
2018-01-18T13:21:00.977Z,80.41
2018-01-18T13:22:01.002Z,79.52
2018-01-18T13:23:54.024Z,79.55
2018-01-18T13:24:53.907Z,79.36
2018-01-18T13:26:46.821Z,79.27
2018-01-18T13:27:46.822Z,78.03
2018-01-18T13:29:39.715Z,78.13
2018-01-18T13:30:39.730Z,77.66
2018-01-18T13:32:32.644Z,76.52
2018-01-18T13:33:32.642Z,77.09
2018-01-18T13:35:25.558Z,77.47
2018-01-18T13:36:25.556Z,77.37
2018-01-18T13:38:18.448Z,77.66
2018-01-18T13:39:18.466Z,76.52
2018-01-18T13:41:11.378Z,77.37
2018-01-18T13:42:11.377Z,77.66
2018-01-18T13:44:04.274Z,78.03
2018-01-18T13:45:04.291Z,78.51
2018-01-18T13:46:57.406Z,78.32
2018-01-18T13:47:57.407Z,78.13
2018-01-18T13:49:50.298Z,78.42
2018-01-18T13:50:50.316Z,77.75
2018-01-18T13:52:43.229Z,77.94
2018-01-18T13:53:43.227Z,78.89
2018-01-18T13:55:36.143Z,78.89
2018-01-18T13:56:36.140Z,79.46
2018-01-18T13:58:29.036Z,79.94
2018-01-18T13:59:29.053Z,80.22
2018-01-18T14:01:21.962Z,80.22
2018-01-18T14:02:21.962Z,80.03
2018-01-18T14:04:14.859Z,80.60
2018-01-18T14:05:14.875Z,80.41
2018-01-18T14:07:07.785Z,80.13
2018-01-18T14:08:07.783Z,80.03
2018-01-18T14:10:01.063Z,80.60
2018-01-18T14:11:00.725Z,80.88
2018-01-18T14:12:53.612Z,80.51
2018-01-18T14:13:53.611Z,80.32
2018-01-18T14:15:46.527Z,79.55
2018-01-18T14:16:46.525Z,79.55
2018-01-18T14:18:46.542Z,79.65
2018-01-18T14:19:39.439Z,79.17
2018-01-18T14:21:32.351Z,79.84
2018-01-18T14:22:32.353Z,79.94
2018-01-18T14:24:25.245Z,80.22
2018-01-18T14:25:25.262Z,80.03
2018-01-18T14:27:18.178Z,80.60
2018-01-18T14:28:18.172Z,79.84
2018-01-18T14:30:12.271Z,79.46
2018-01-18T14:31:12.284Z,79.27
2018-01-18T14:33:05.214Z,79.46
2018-01-18T14:34:05.191Z,79.27
2018-01-18T14:35:58.104Z,79.74
2018-01-18T14:36:58.104Z,80.03
2018-01-18T14:38:50.998Z,81.55
2018-01-18T14:39:51.015Z,81.07
2018-01-18T14:41:43.939Z,81.74
2018-01-18T14:42:43.935Z,82.03
2018-01-18T14:44:36.830Z,81.55
2018-01-18T14:45:36.849Z,82.88
2018-01-18T14:47:29.761Z,83.40
2018-01-18T14:48:29.759Z,84.83
2018-01-18T14:50:22.658Z,86.07
2018-01-18T14:51:22.674Z,86.44
2018-01-18T14:53:15.586Z,87.96
2018-01-18T14:54:15.582Z,88.43
2018-01-18T14:56:09.493Z,89.10
2018-01-18T14:57:09.489Z,89.48
2018-01-18T14:59:02.388Z,89.53
2018-01-18T15:00:02.402Z,89.15
2018-01-18T15:01:55.318Z,90.00
2018-01-18T15:02:55.315Z,89.72
2018-01-18T15:04:48.211Z,90.95
2018-01-18T15:05:48.228Z,91.80
2018-01-18T15:07:41.148Z,91.61
2018-01-18T15:08:41.145Z,92.18
2018-01-18T15:10:34.038Z,92.09
2018-01-18T15:11:34.068Z,92.66
2018-01-18T15:13:27.039Z,93.41
2018-01-18T15:14:27.038Z,93.51
2018-01-18T15:16:19.954Z,92.85
2018-01-18T15:17:19.949Z,93.23
2018-01-18T15:19:12.846Z,93.13
2018-01-18T15:20:12.933Z,93.32
2018-01-18T15:22:05.774Z,93.13
2018-01-18T15:23:05.768Z,93.41
2018-01-18T15:24:58.661Z,93.32
2018-01-18T15:25:58.683Z,93.32
2018-01-18T15:27:51.592Z,93.32
2018-01-18T15:28:51.588Z,93.13
2018-01-18T15:30:44.480Z,92.38
2018-01-18T15:31:44.506Z,92.57
2018-01-18T15:33:37.405Z,92.66
2018-01-18T15:34:37.401Z,92.47
2018-01-18T15:36:30.327Z,92.18
2018-01-18T15:37:30.313Z,92.66
2018-01-18T15:39:23.204Z,91.71
2018-01-18T15:40:23.221Z,91.99
2018-01-18T15:42:16.174Z,91.61
2018-01-18T15:43:16.128Z,91.71
2018-01-18T15:45:10.015Z,91.90
2018-01-18T15:46:10.033Z,92.18
2018-01-18T15:48:02.946Z,91.80
2018-01-18T15:49:02.940Z,91.42
2018-01-18T15:50:55.834Z,91.42
2018-01-18T15:51:55.848Z,90.76
2018-01-18T15:53:49.306Z,90.57
2018-01-18T15:54:49.159Z,90.57
2018-01-18T15:56:42.054Z,89.34
2018-01-18T15:57:42.076Z,89.53
2018-01-18T15:59:34.984Z,89.15
2018-01-18T16:00:34.979Z,89.34
2018-01-18T16:02:27.894Z,89.15
2018-01-18T16:03:27.887Z,88.77
2018-01-18T16:05:20.785Z,88.96
2018-01-18T16:06:20.798Z,88.96
2018-01-18T16:08:13.712Z,88.77
2018-01-18T16:09:13.707Z,88.48
2018-01-18T16:11:06.642Z,88.68
2018-01-18T16:12:06.671Z,88.77
2018-01-18T16:13:59.573Z,88.77
2018-01-18T16:14:59.560Z,88.48
2018-01-18T16:16:52.468Z,89.48
2018-01-18T16:17:52.467Z,89.25
2018-01-18T16:19:45.380Z,89.25
2018-01-18T16:20:45.377Z,89.53
2018-01-18T16:22:38.273Z,89.91
2018-01-18T16:23:38.287Z,89.53
2018-01-18T16:25:31.300Z,89.91
2018-01-18T16:26:31.195Z,89.91
2018-01-18T16:28:24.111Z,90.10
2018-01-18T16:29:24.108Z,90.00
2018-01-18T16:31:17.004Z,90.29
2018-01-18T16:32:17.038Z,91.05
2018-01-18T16:34:09.932Z,91.05
2018-01-18T16:35:09.930Z,91.05
2018-01-18T16:37:02.822Z,91.61
2018-01-18T16:38:02.841Z,91.90
2018-01-18T16:39:56.801Z,91.24
2018-01-18T16:40:56.779Z,92.18
2018-01-18T16:42:49.650Z,92.38
2018-01-18T16:43:49.666Z,92.18
2018-01-18T16:45:42.582Z,92.47
2018-01-18T16:46:42.579Z,92.47
2018-01-18T16:48:35.488Z,93.13
2018-01-18T16:49:35.515Z,93.04
2018-01-18T16:51:28.417Z,93.13
2018-01-18T16:52:28.415Z,93.23
2018-01-18T16:54:21.330Z,93.23
2018-01-18T16:55:21.325Z,93.13
2018-01-18T16:57:14.220Z,93.23
2018-01-18T16:58:14.247Z,93.23
2018-01-18T17:00:07.194Z,92.76
2018-01-18T17:01:07.264Z,92.66
2018-01-18T17:03:00.083Z,92.66
2018-01-18T17:04:00.098Z,93.41
2018-01-18T17:05:53.012Z,93.13
2018-01-18T17:06:53.008Z,92.94
2018-01-18T17:08:45.905Z,92.94
2018-01-18T17:09:45.921Z,93.04
2018-01-18T17:11:38.839Z,93.13
2018-01-18T17:12:38.838Z,93.13
2018-01-18T17:14:31.752Z,93.23
2018-01-18T17:15:31.809Z,93.04
2018-01-18T17:17:24.664Z,93.32
2018-01-18T17:18:24.675Z,93.37
2018-01-18T17:20:17.579Z,93.13
2018-01-18T17:21:17.573Z,93.04
2018-01-18T17:23:10.467Z,93.04
2018-01-18T17:24:10.483Z,92.94
2018-01-18T17:26:03.404Z,93.27
2018-01-18T17:27:03.403Z,92.66
2018-01-18T17:28:56.298Z,92.80
2018-01-18T17:29:56.311Z,91.99
2018-01-18T17:31:49.225Z,91.99
2018-01-18T17:32:49.222Z,92.14
2018-01-18T17:34:42.118Z,92.71
2018-01-18T17:35:42.131Z,91.90
2018-01-18T17:37:35.045Z,91.90
2018-01-18T17:38:35.039Z,92.04
2018-01-18T17:40:27.937Z,91.66
2018-01-18T17:41:27.959Z,91.75
2018-01-18T17:43:20.866Z,91.47
2018-01-18T17:44:20.864Z,91.61
2018-01-18T17:46:13.780Z,91.42
2018-01-18T17:47:13.781Z,91.80
2018-01-18T17:49:06.683Z,91.99
2018-01-18T17:50:06.687Z,91.80
2018-01-18T17:51:59.601Z,91.61
2018-01-18T17:52:59.595Z,90.95
2018-01-18T17:54:52.492Z,91.33
2018-01-18T17:55:52.506Z,91.71
2018-01-18T17:57:45.420Z,91.14
2018-01-18T17:58:45.421Z,90.95
2018-01-18T18:00:38.312Z,91.05
2018-01-18T18:01:38.328Z,90.86
2018-01-18T18:03:31.281Z,91.52
2018-01-18T18:04:31.260Z,91.99
2018-01-18T18:06:24.168Z,90.48
2018-01-18T18:07:24.172Z,90.76
2018-01-18T18:09:17.062Z,90.67
2018-01-18T18:10:17.078Z,90.29
2018-01-18T18:12:09.996Z,90.95
2018-01-18T18:13:09.986Z,91.24
2018-01-18T18:15:02.886Z,90.48
2018-01-18T18:16:02.903Z,90.19
2018-01-18T18:17:55.816Z,89.25
2018-01-18T18:18:55.813Z,90.00
2018-01-18T18:20:48.705Z,89.53
2018-01-18T18:21:48.720Z,89.25
2018-01-18T18:23:41.632Z,89.72
2018-01-18T18:24:41.633Z,89.25
2018-01-18T18:26:34.532Z,89.43
2018-01-18T18:27:34.542Z,89.25
2018-01-18T18:29:27.457Z,89.34
2018-01-18T18:30:27.459Z,89.15
2018-01-18T18:32:20.373Z,88.87
2018-01-18T18:33:20.360Z,88.96
2018-01-18T18:35:13.350Z,89.53
2018-01-18T18:36:13.274Z,88.87
2018-01-18T18:38:06.183Z,88.58
2018-01-18T18:39:06.181Z,88.68
2018-01-18T18:40:59.268Z,88.77
2018-01-18T18:41:59.284Z,89.06
2018-01-18T18:43:52.198Z,88.77
2018-01-18T18:44:52.192Z,88.77
2018-01-18T18:46:45.085Z,89.06
2018-01-18T18:47:45.107Z,89.53
2018-01-18T18:49:38.017Z,90.29
2018-01-18T18:50:38.010Z,90.19
2018-01-18T18:52:30.915Z,89.72
2018-01-18T18:53:31.002Z,89.91
2018-01-18T18:55:23.847Z,90.29
2018-01-18T18:56:23.847Z,90.95
2018-01-18T18:58:16.932Z,91.14
2018-01-18T18:59:16.764Z,91.05
2018-01-18T19:01:09.662Z,91.14
2018-01-18T19:02:09.677Z,90.67
2018-01-18T19:04:02.586Z,90.48
2018-01-18T19:05:02.584Z,90.57
2018-01-18T19:06:56.481Z,90.95
2018-01-18T19:07:56.503Z,91.05
2018-01-18T19:09:49.408Z,91.05
2018-01-18T19:10:49.408Z,91.14
2018-01-18T19:12:42.340Z,91.14
2018-01-18T19:13:42.358Z,91.05
2018-01-18T19:15:35.270Z,91.05
2018-01-18T19:16:35.266Z,90.95
2018-01-18T19:18:28.179Z,91.52
2018-01-18T19:19:28.216Z,91.61
2018-01-18T19:21:21.106Z,91.33
2018-01-18T19:22:21.102Z,91.24
2018-01-18T19:24:14.121Z,91.33
2018-01-18T19:25:14.013Z,91.24
2018-01-18T19:27:06.908Z,91.14
2018-01-18T19:28:06.923Z,91.14
2018-01-18T19:30:00.612Z,91.05
2018-01-18T19:31:00.589Z,91.05
2018-01-18T19:32:53.486Z,91.05
2018-01-18T19:33:53.507Z,91.61
2018-01-18T19:35:47.418Z,91.05
2018-01-18T19:36:47.429Z,91.24
2018-01-18T19:38:40.438Z,91.42
2018-01-18T19:39:40.461Z,91.14
2018-01-18T19:41:33.371Z,91.14
2018-01-18T19:42:33.368Z,90.95
2018-01-18T19:44:26.267Z,91.42
2018-01-18T19:45:26.279Z,90.67
2018-01-18T19:47:19.202Z,90.38
2018-01-18T19:48:19.187Z,90.86
2018-01-18T19:50:12.101Z,91.24
2018-01-18T19:51:12.097Z,91.24
2018-01-18T19:53:05.014Z,91.05
2018-01-18T19:54:05.024Z,91.14
2018-01-18T19:55:57.940Z,91.05
2018-01-18T19:56:57.959Z,91.24
2018-01-18T19:58:50.834Z,90.95
2018-01-18T19:59:50.848Z,90.95
2018-01-18T20:01:43.764Z,90.86
2018-01-18T20:02:43.759Z,90.95
2018-01-18T20:04:36.655Z,90.67
2018-01-18T20:05:36.671Z,90.57
2018-01-18T20:07:29.585Z,90.38
2018-01-18T20:08:29.581Z,90.76
2018-01-18T20:10:22.475Z,90.53
2018-01-18T20:11:22.493Z,90.34
2018-01-18T20:13:15.416Z,90.53
2018-01-18T20:14:15.400Z,90.43
2018-01-18T20:16:08.332Z,90.24
2018-01-18T20:17:08.427Z,90.24
2018-01-18T20:19:01.222Z,90.43